ENAT/ALF METAR and TAF weather

Enter ICAO airport designator
Station Type Date Time Source
ENAT METAR 2019/02/23 16:50 UTC NOAA

ENAT 231650Z 29010KT 230V310 9999 SCT049 08/01 Q1008 RMK WIND 700FT 30020G32KT


Station Type Date Time Source
ENAT Decoded METAR 2019/02/23 16:50 UTC NOAA

Alta Lufthavn, Norway (ENAT) 69-59N 023-22E 3M
Feb 23, 2019 - 11:50 AM EST / 2019.02.23 1650 UTC
Wind: from the WNW (290 degrees) at 12 MPH (10 KT) (direction variable):0
Visibility: greater than 7 mile(s):0
Sky conditions: partly cloudy
Temperature: 46 F (8 C)
Dew Point: 33 F (1 C)
Relative Humidity: 61%
Pressure (altimeter): 29.77 in. Hg (1008 hPa)
ob: ENAT 231650Z 29010KT 230V310 9999 SCT049 08/01 Q1008 RMK WIND 700FT 30020G32KT
cycle: 17

Station Type Date Time Source
ENAT TAF 2008/11/30 23:00 UTC NOAA

TAF TAF ENAT 302300Z 3023/0102 22005KT 7000 -SN FEW008 BKN020
TEMPO 3023/0102 3000 -SN VV012


Example: see airport list